sensor_id;sensor_type;location;lat;lon;timestamp;P1;durP1;ratioP1;P2;durP2;ratioP2
67049;SDS011;53955;52.442;13.284;2022-09-13T00:00:31;6.35;;;3.20;;
67049;SDS011;53955;52.442;13.284;2022-09-13T00:02:58;4.53;;;3.28;;
67049;SDS011;53955;52.442;13.284;2022-09-13T00:05:25;3.30;;;2.63;;
67049;SDS011;53955;52.442;13.284;2022-09-13T00:07:52;3.47;;;2.80;;
67049;SDS011;53955;52.442;13.284;2022-09-13T00:10:21;5.85;;;3.10;;
67049;SDS011;53955;52.442;13.284;2022-09-13T00:12:48;3.50;;;2.78;;
67049;SDS011;53955;52.442;13.284;2022-09-13T00:15:15;4.10;;;3.00;;
67049;SDS011;53955;52.442;13.284;2022-09-13T00:17:42;5.07;;;3.42;;
67049;SDS011;53955;52.442;13.284;2022-09-13T00:20:08;4.13;;;3.17;;
67049;SDS011;53955;52.442;13.284;2022-09-13T00:22:36;4.80;;;2.80;;
67049;SDS011;53955;52.442;13.284;2022-09-13T00:25:03;4.22;;;3.17;;
67049;SDS011;53955;52.442;13.284;2022-09-13T00:27:32;4.05;;;2.95;;
67049;SDS011;53955;52.442;13.284;2022-09-13T00:29:59;4.28;;;3.45;;
67049;SDS011;53955;52.442;13.284;2022-09-13T00:32:26;6.50;;;2.90;;
67049;SDS011;53955;52.442;13.284;2022-09-13T00:34:52;4.95;;;2.78;;
67049;SDS011;53955;52.442;13.284;2022-09-13T00:37:19;4.30;;;3.28;;
67049;SDS011;53955;52.442;13.284;2022-09-13T00:39:46;4.78;;;3.17;;
67049;SDS011;53955;52.442;13.284;2022-09-13T00:42:12;4.25;;;3.40;;
67049;SDS011;53955;52.442;13.284;2022-09-13T00:44:48;4.57;;;3.03;;
67049;SDS011;53955;52.442;13.284;2022-09-13T00:47:19;4.22;;;3.35;;
67049;SDS011;53955;52.442;13.284;2022-09-13T00:49:50;7.10;;;3.50;;
67049;SDS011;53955;52.442;13.284;2022-09-13T00:52:20;4.57;;;3.22;;
67049;SDS011;53955;52.442;13.284;2022-09-13T00:54:51;4.55;;;3.38;;
67049;SDS011;53955;52.442;13.284;2022-09-13T00:57:22;3.85;;;2.92;;
67049;SDS011;53955;52.442;13.284;2022-09-13T00:59:53;4.13;;;3.58;;
67049;SDS011;53955;52.442;13.284;2022-09-13T01:02:25;4.10;;;3.28;;
67049;SDS011;53955;52.442;13.284;2022-09-13T01:04:53;4.15;;;3.30;;
67049;SDS011;53955;52.442;13.284;2022-09-13T01:07:20;3.92;;;3.15;;
67049;SDS011;53955;52.442;13.284;2022-09-13T01:09:47;4.78;;;3.65;;
67049;SDS011;53955;52.442;13.284;2022-09-13T01:12:16;4.63;;;3.63;;
67049;SDS011;53955;52.442;13.284;2022-09-13T01:14:52;4.70;;;3.58;;
67049;SDS011;53955;52.442;13.284;2022-09-13T01:17:24;4.50;;;3.40;;
67049;SDS011;53955;52.442;13.284;2022-09-13T01:19:51;3.80;;;3.17;;
67049;SDS011;53955;52.442;13.284;2022-09-13T01:22:30;4.93;;;3.17;;
67049;SDS011;53955;52.442;13.284;2022-09-13T01:25:24;6.88;;;3.85;;
67049;SDS011;53955;52.442;13.284;2022-09-13T01:31:12;5.05;;;3.40;;
67049;SDS011;53955;52.442;13.284;2022-09-13T01:33:50;4.95;;;3.30;;
67049;SDS011;53955;52.442;13.284;2022-09-13T01:36:37;3.83;;;3.20;;
67049;SDS011;53955;52.442;13.284;2022-09-13T01:39:21;3.75;;;3.30;;
67049;SDS011;53955;52.442;13.284;2022-09-13T01:42:02;4.78;;;3.75;;
67049;SDS011;53955;52.442;13.284;2022-09-13T01:44:43;4.22;;;3.35;;
67049;SDS011;53955;52.442;13.284;2022-09-13T01:47:26;5.88;;;3.67;;
67049;SDS011;53955;52.442;13.284;2022-09-13T01:49:57;4.53;;;3.50;;
67049;SDS011;53955;52.442;13.284;2022-09-13T01:52:34;7.53;;;3.90;;
67049;SDS011;53955;52.442;13.284;2022-09-13T01:55:08;4.82;;;3.75;;
67049;SDS011;53955;52.442;13.284;2022-09-13T01:57:44;4.60;;;3.72;;
67049;SDS011;53955;52.442;13.284;2022-09-13T02:00:16;5.45;;;3.50;;
67049;SDS011;53955;52.442;13.284;2022-09-13T02:02:48;4.88;;;3.42;;
67049;SDS011;53955;52.442;13.284;2022-09-13T02:05:21;4.97;;;3.80;;
67049;SDS011;53955;52.442;13.284;2022-09-13T02:07:54;6.28;;;4.10;;
67049;SDS011;53955;52.442;13.284;2022-09-13T02:10:26;4.15;;;3.30;;
67049;SDS011;53955;52.442;13.284;2022-09-13T02:12:58;6.85;;;3.60;;
67049;SDS011;53955;52.442;13.284;2022-09-13T02:15:31;5.43;;;4.13;;
67049;SDS011;53955;52.442;13.284;2022-09-13T02:18:04;5.10;;;3.70;;
67049;SDS011;53955;52.442;13.284;2022-09-13T02:20:35;5.88;;;3.53;;
67049;SDS011;53955;52.442;13.284;2022-09-13T02:23:04;4.95;;;4.05;;
67049;SDS011;53955;52.442;13.284;2022-09-13T02:25:37;4.78;;;3.80;;
67049;SDS011;53955;52.442;13.284;2022-09-13T02:28:06;5.13;;;3.88;;
67049;SDS011;53955;52.442;13.284;2022-09-13T02:30:37;4.40;;;3.75;;
67049;SDS011;53955;52.442;13.284;2022-09-13T02:33:10;5.35;;;4.03;;
67049;SDS011;53955;52.442;13.284;2022-09-13T02:35:41;5.30;;;3.80;;
67049;SDS011;53955;52.442;13.284;2022-09-13T02:38:14;5.20;;;4.22;;
67049;SDS011;53955;52.442;13.284;2022-09-13T02:40:45;6.28;;;4.22;;
67049;SDS011;53955;52.442;13.284;2022-09-13T02:43:16;4.10;;;3.42;;
67049;SDS011;53955;52.442;13.284;2022-09-13T02:45:49;5.72;;;3.97;;
67049;SDS011;53955;52.442;13.284;2022-09-13T02:48:28;5.78;;;4.00;;
67049;SDS011;53955;52.442;13.284;2022-09-13T02:51:02;4.55;;;3.80;;
67049;SDS011;53955;52.442;13.284;2022-09-13T02:53:34;4.72;;;3.42;;
67049;SDS011;53955;52.442;13.284;2022-09-13T02:56:09;4.25;;;3.33;;
67049;SDS011;53955;52.442;13.284;2022-09-13T02:58:45;5.10;;;3.70;;
67049;SDS011;53955;52.442;13.284;2022-09-13T03:01:15;4.78;;;3.72;;
67049;SDS011;53955;52.442;13.284;2022-09-13T03:03:43;4.47;;;3.45;;
67049;SDS011;53955;52.442;13.284;2022-09-13T03:06:10;5.82;;;3.67;;
67049;SDS011;53955;52.442;13.284;2022-09-13T03:08:36;5.15;;;3.78;;
67049;SDS011;53955;52.442;13.284;2022-09-13T03:11:06;4.43;;;3.60;;
67049;SDS011;53955;52.442;13.284;2022-09-13T03:13:47;5.05;;;4.15;;
67049;SDS011;53955;52.442;13.284;2022-09-13T03:16:28;4.70;;;3.70;;
67049;SDS011;53955;52.442;13.284;2022-09-13T03:19:10;5.72;;;4.00;;
67049;SDS011;53955;52.442;13.284;2022-09-13T03:21:52;4.40;;;3.50;;
67049;SDS011;53955;52.442;13.284;2022-09-13T03:24:29;4.35;;;3.80;;
67049;SDS011;53955;52.442;13.284;2022-09-13T03:27:05;4.68;;;3.80;;
67049;SDS011;53955;52.442;13.284;2022-09-13T03:29:39;6.32;;;3.90;;
67049;SDS011;53955;52.442;13.284;2022-09-13T03:32:14;4.28;;;3.28;;
67049;SDS011;53955;52.442;13.284;2022-09-13T03:34:52;4.35;;;3.25;;
67049;SDS011;53955;52.442;13.284;2022-09-13T03:37:28;4.80;;;3.65;;
67049;SDS011;53955;52.442;13.284;2022-09-13T03:39:59;5.07;;;3.67;;
67049;SDS011;53955;52.442;13.284;2022-09-13T03:42:33;5.50;;;4.20;;
67049;SDS011;53955;52.442;13.284;2022-09-13T03:45:05;4.65;;;3.60;;
67049;SDS011;53955;52.442;13.284;2022-09-13T03:47:35;5.00;;;3.72;;
67049;SDS011;53955;52.442;13.284;2022-09-13T03:50:05;5.18;;;4.30;;
67049;SDS011;53955;52.442;13.284;2022-09-13T03:52:34;5.07;;;3.75;;
67049;SDS011;53955;52.442;13.284;2022-09-13T03:55:01;6.28;;;4.35;;
67049;SDS011;53955;52.442;13.284;2022-09-13T03:57:27;5.50;;;4.30;;
67049;SDS011;53955;52.442;13.284;2022-09-13T03:59:55;6.55;;;3.97;;
67049;SDS011;53955;52.442;13.284;2022-09-13T04:02:22;4.72;;;3.75;;
67049;SDS011;53955;52.442;13.284;2022-09-13T04:04:50;4.93;;;4.32;;
67049;SDS011;53955;52.442;13.284;2022-09-13T04:07:19;5.05;;;4.18;;
67049;SDS011;53955;52.442;13.284;2022-09-13T04:09:46;6.90;;;4.15;;
67049;SDS011;53955;52.442;13.284;2022-09-13T04:12:13;5.40;;;3.53;;
67049;SDS011;53955;52.442;13.284;2022-09-13T04:14:41;5.30;;;4.00;;
67049;SDS011;53955;52.442;13.284;2022-09-13T04:17:08;4.88;;;4.03;;
67049;SDS011;53955;52.442;13.284;2022-09-13T04:19:36;5.05;;;4.28;;
67049;SDS011;53955;52.442;13.284;2022-09-13T04:22:03;5.03;;;4.25;;
67049;SDS011;53955;52.442;13.284;2022-09-13T04:24:31;5.53;;;4.50;;
67049;SDS011;53955;52.442;13.284;2022-09-13T04:26:57;5.50;;;4.20;;
67049;SDS011;53955;52.442;13.284;2022-09-13T04:29:24;5.13;;;4.00;;
67049;SDS011;53955;52.442;13.284;2022-09-13T04:31:52;5.30;;;3.88;;
67049;SDS011;53955;52.442;13.284;2022-09-13T04:34:19;5.50;;;4.28;;
67049;SDS011;53955;52.442;13.284;2022-09-13T04:36:47;5.38;;;3.90;;
67049;SDS011;53955;52.442;13.284;2022-09-13T04:39:13;5.43;;;4.35;;
67049;SDS011;53955;52.442;13.284;2022-09-13T04:41:42;6.32;;;4.45;;
67049;SDS011;53955;52.442;13.284;2022-09-13T04:44:11;5.50;;;4.40;;
67049;SDS011;53955;52.442;13.284;2022-09-13T04:46:38;7.32;;;4.75;;
67049;SDS011;53955;52.442;13.284;2022-09-13T04:49:04;5.93;;;4.50;;
67049;SDS011;53955;52.442;13.284;2022-09-13T04:51:31;4.90;;;3.78;;
67049;SDS011;53955;52.442;13.284;2022-09-13T04:53:57;5.55;;;4.18;;
67049;SDS011;53955;52.442;13.284;2022-09-13T04:56:24;5.05;;;4.18;;
67049;SDS011;53955;52.442;13.284;2022-09-13T04:58:52;5.78;;;4.50;;
67049;SDS011;53955;52.442;13.284;2022-09-13T05:01:20;5.15;;;4.35;;
67049;SDS011;53955;52.442;13.284;2022-09-13T05:03:49;5.40;;;4.00;;
67049;SDS011;53955;52.442;13.284;2022-09-13T05:06:16;8.48;;;4.30;;
67049;SDS011;53955;52.442;13.284;2022-09-13T05:08:43;8.65;;;4.50;;
67049;SDS011;53955;52.442;13.284;2022-09-13T05:11:14;10.55;;;4.20;;
67049;SDS011;53955;52.442;13.284;2022-09-13T05:13:40;6.03;;;4.18;;
67049;SDS011;53955;52.442;13.284;2022-09-13T05:16:08;6.28;;;4.85;;
67049;SDS011;53955;52.442;13.284;2022-09-13T05:18:35;6.05;;;4.55;;
67049;SDS011;53955;52.442;13.284;2022-09-13T05:21:03;5.93;;;4.15;;
67049;SDS011;53955;52.442;13.284;2022-09-13T05:23:30;6.43;;;4.05;;
67049;SDS011;53955;52.442;13.284;2022-09-13T05:25:58;5.38;;;3.90;;
67049;SDS011;53955;52.442;13.284;2022-09-13T05:28:25;5.43;;;3.95;;
67049;SDS011;53955;52.442;13.284;2022-09-13T05:30:53;6.93;;;4.70;;
67049;SDS011;53955;52.442;13.284;2022-09-13T05:33:22;7.25;;;4.00;;
67049;SDS011;53955;52.442;13.284;2022-09-13T05:35:49;6.55;;;4.65;;
67049;SDS011;53955;52.442;13.284;2022-09-13T05:38:16;5.03;;;4.25;;
67049;SDS011;53955;52.442;13.284;2022-09-13T05:40:43;6.03;;;4.50;;
67049;SDS011;53955;52.442;13.284;2022-09-13T05:43:10;6.40;;;4.55;;
67049;SDS011;53955;52.442;13.284;2022-09-13T05:45:37;6.43;;;4.40;;
67049;SDS011;53955;52.442;13.284;2022-09-13T05:48:03;5.22;;;3.97;;
67049;SDS011;53955;52.442;13.284;2022-09-13T05:50:31;6.18;;;4.45;;
67049;SDS011;53955;52.442;13.284;2022-09-13T05:53:02;6.97;;;5.15;;
67049;SDS011;53955;52.442;13.284;2022-09-13T05:55:29;7.20;;;5.03;;
67049;SDS011;53955;52.442;13.284;2022-09-13T05:57:56;6.90;;;4.63;;
67049;SDS011;53955;52.442;13.284;2022-09-13T06:00:23;5.47;;;4.13;;
67049;SDS011;53955;52.442;13.284;2022-09-13T06:02:49;6.20;;;5.10;;
67049;SDS011;53955;52.442;13.284;2022-09-13T06:05:16;6.68;;;4.85;;
67049;SDS011;53955;52.442;13.284;2022-09-13T06:07:44;7.72;;;4.88;;
67049;SDS011;53955;52.442;13.284;2022-09-13T06:10:10;6.53;;;4.72;;
67049;SDS011;53955;52.442;13.284;2022-09-13T06:12:37;7.15;;;5.07;;
67049;SDS011;53955;52.442;13.284;2022-09-13T06:15:04;5.85;;;4.50;;
67049;SDS011;53955;52.442;13.284;2022-09-13T06:17:33;6.97;;;5.05;;
67049;SDS011;53955;52.442;13.284;2022-09-13T06:19:59;6.43;;;4.63;;
67049;SDS011;53955;52.442;13.284;2022-09-13T06:22:26;7.25;;;5.22;;
67049;SDS011;53955;52.442;13.284;2022-09-13T06:24:58;8.02;;;5.45;;
67049;SDS011;53955;52.442;13.284;2022-09-13T06:27:25;7.57;;;5.82;;
67049;SDS011;53955;52.442;13.284;2022-09-13T06:29:52;8.88;;;4.95;;
67049;SDS011;53955;52.442;13.284;2022-09-13T06:32:19;6.85;;;4.85;;
67049;SDS011;53955;52.442;13.284;2022-09-13T06:34:45;8.65;;;5.40;;
67049;SDS011;53955;52.442;13.284;2022-09-13T06:37:12;7.45;;;5.32;;
67049;SDS011;53955;52.442;13.284;2022-09-13T06:39:39;6.93;;;4.95;;
67049;SDS011;53955;52.442;13.284;2022-09-13T06:42:06;6.70;;;4.97;;
67049;SDS011;53955;52.442;13.284;2022-09-13T06:44:33;8.48;;;5.28;;
67049;SDS011;53955;52.442;13.284;2022-09-13T06:47:00;6.78;;;5.00;;
67049;SDS011;53955;52.442;13.284;2022-09-13T06:49:26;9.93;;;5.43;;
67049;SDS011;53955;52.442;13.284;2022-09-13T06:51:55;7.30;;;5.13;;
67049;SDS011;53955;52.442;13.284;2022-09-13T06:54:22;7.53;;;5.15;;
67049;SDS011;53955;52.442;13.284;2022-09-13T06:56:48;7.25;;;5.07;;
67049;SDS011;53955;52.442;13.284;2022-09-13T06:59:16;8.00;;;5.40;;
67049;SDS011;53955;52.442;13.284;2022-09-13T07:01:43;7.57;;;5.05;;
67049;SDS011;53955;52.442;13.284;2022-09-13T07:04:11;7.57;;;5.65;;
67049;SDS011;53955;52.442;13.284;2022-09-13T07:06:39;9.20;;;5.28;;
67049;SDS011;53955;52.442;13.284;2022-09-13T07:09:07;9.45;;;5.13;;
67049;SDS011;53955;52.442;13.284;2022-09-13T07:11:37;7.45;;;5.20;;
67049;SDS011;53955;52.442;13.284;2022-09-13T07:14:05;10.68;;;5.70;;
67049;SDS011;53955;52.442;13.284;2022-09-13T07:16:35;7.88;;;5.30;;
67049;SDS011;53955;52.442;13.284;2022-09-13T07:19:03;10.75;;;4.78;;
67049;SDS011;53955;52.442;13.284;2022-09-13T07:21:31;9.50;;;6.53;;
67049;SDS011;53955;52.442;13.284;2022-09-13T07:23:59;8.18;;;5.53;;
67049;SDS011;53955;52.442;13.284;2022-09-13T07:26:26;7.68;;;5.53;;
67049;SDS011;53955;52.442;13.284;2022-09-13T07:28:54;7.63;;;5.25;;
67049;SDS011;53955;52.442;13.284;2022-09-13T07:31:23;9.18;;;5.43;;
67049;SDS011;53955;52.442;13.284;2022-09-13T07:33:53;7.78;;;5.45;;
67049;SDS011;53955;52.442;13.284;2022-09-13T07:36:21;9.88;;;5.53;;
67049;SDS011;53955;52.442;13.284;2022-09-13T07:38:48;8.27;;;5.20;;
67049;SDS011;53955;52.442;13.284;2022-09-13T07:41:16;7.38;;;5.55;;
67049;SDS011;53955;52.442;13.284;2022-09-13T07:43:44;9.45;;;5.97;;
67049;SDS011;53955;52.442;13.284;2022-09-13T07:46:11;8.93;;;6.00;;
67049;SDS011;53955;52.442;13.284;2022-09-13T07:48:40;8.18;;;5.63;;
67049;SDS011;53955;52.442;13.284;2022-09-13T07:51:09;9.60;;;5.25;;
67049;SDS011;53955;52.442;13.284;2022-09-13T07:53:38;10.32;;;4.97;;
67049;SDS011;53955;52.442;13.284;2022-09-13T07:56:06;7.60;;;5.50;;
67049;SDS011;53955;52.442;13.284;2022-09-13T07:58:34;6.85;;;5.05;;
67049;SDS011;53955;52.442;13.284;2022-09-13T08:01:03;8.32;;;5.32;;
67049;SDS011;53955;52.442;13.284;2022-09-13T08:03:32;7.75;;;5.43;;
67049;SDS011;53955;52.442;13.284;2022-09-13T08:05:59;8.35;;;5.80;;
67049;SDS011;53955;52.442;13.284;2022-09-13T08:08:27;9.13;;;5.78;;
67049;SDS011;53955;52.442;13.284;2022-09-13T08:10:55;9.25;;;5.78;;
67049;SDS011;53955;52.442;13.284;2022-09-13T08:13:22;8.15;;;6.07;;
67049;SDS011;53955;52.442;13.284;2022-09-13T08:15:49;9.02;;;5.65;;
67049;SDS011;53955;52.442;13.284;2022-09-13T08:18:16;8.02;;;5.15;;
67049;SDS011;53955;52.442;13.284;2022-09-13T08:20:42;9.27;;;6.25;;
67049;SDS011;53955;52.442;13.284;2022-09-13T08:23:09;12.75;;;5.90;;
67049;SDS011;53955;52.442;13.284;2022-09-13T08:25:38;6.88;;;5.15;;
67049;SDS011;53955;52.442;13.284;2022-09-13T08:28:05;8.18;;;5.68;;
67049;SDS011;53955;52.442;13.284;2022-09-13T08:30:33;8.75;;;6.30;;
67049;SDS011;53955;52.442;13.284;2022-09-13T08:33:01;9.93;;;6.13;;
67049;SDS011;53955;52.442;13.284;2022-09-13T08:35:28;7.80;;;5.97;;
67049;SDS011;53955;52.442;13.284;2022-09-13T08:37:55;7.22;;;5.10;;
67049;SDS011;53955;52.442;13.284;2022-09-13T08:40:21;9.90;;;5.40;;
67049;SDS011;53955;52.442;13.284;2022-09-13T08:42:53;8.85;;;5.38;;
67049;SDS011;53955;52.442;13.284;2022-09-13T08:45:27;8.77;;;6.03;;
67049;SDS011;53955;52.442;13.284;2022-09-13T08:47:55;10.75;;;5.43;;
67049;SDS011;53955;52.442;13.284;2022-09-13T08:50:27;8.63;;;5.15;;
67049;SDS011;53955;52.442;13.284;2022-09-13T08:52:58;7.43;;;5.15;;
67049;SDS011;53955;52.442;13.284;2022-09-13T08:55:40;7.15;;;5.03;;
67049;SDS011;53955;52.442;13.284;2022-09-13T08:58:22;7.20;;;5.13;;
67049;SDS011;53955;52.442;13.284;2022-09-13T09:01:02;6.82;;;4.63;;
67049;SDS011;53955;52.442;13.284;2022-09-13T09:03:35;7.75;;;5.30;;
67049;SDS011;53955;52.442;13.284;2022-09-13T09:06:10;7.05;;;5.05;;
67049;SDS011;53955;52.442;13.284;2022-09-13T09:08:39;7.25;;;5.03;;
67049;SDS011;53955;52.442;13.284;2022-09-13T09:11:13;7.22;;;5.07;;
67049;SDS011;53955;52.442;13.284;2022-09-13T09:13:49;8.38;;;4.75;;
67049;SDS011;53955;52.442;13.284;2022-09-13T09:16:24;8.75;;;5.38;;
67049;SDS011;53955;52.442;13.284;2022-09-13T09:18:58;7.53;;;4.97;;
67049;SDS011;53955;52.442;13.284;2022-09-13T09:21:32;7.05;;;4.68;;
67049;SDS011;53955;52.442;13.284;2022-09-13T09:23:59;9.20;;;4.38;;
67049;SDS011;53955;52.442;13.284;2022-09-13T09:26:28;8.27;;;5.07;;
67049;SDS011;53955;52.442;13.284;2022-09-13T09:28:57;11.63;;;4.57;;
67049;SDS011;53955;52.442;13.284;2022-09-13T09:31:28;7.70;;;4.40;;
67049;SDS011;53955;52.442;13.284;2022-09-13T09:34:07;6.67;;;4.50;;
67049;SDS011;53955;52.442;13.284;2022-09-13T09:36:43;7.13;;;5.20;;
67049;SDS011;53955;52.442;13.284;2022-09-13T09:39:13;7.53;;;4.70;;
67049;SDS011;53955;52.442;13.284;2022-09-13T09:41:41;7.45;;;4.22;;
67049;SDS011;53955;52.442;13.284;2022-09-13T09:44:17;7.60;;;4.55;;
67049;SDS011;53955;52.442;13.284;2022-09-13T09:46:46;6.32;;;4.22;;
67049;SDS011;53955;52.442;13.284;2022-09-13T09:49:16;7.28;;;4.85;;
67049;SDS011;53955;52.442;13.284;2022-09-13T09:52:04;7.80;;;4.30;;
67049;SDS011;53955;52.442;13.284;2022-09-13T09:54:35;8.95;;;5.03;;
67049;SDS011;53955;52.442;13.284;2022-09-13T09:57:03;6.15;;;4.30;;
67049;SDS011;53955;52.442;13.284;2022-09-13T09:59:32;6.53;;;4.40;;
67049;SDS011;53955;52.442;13.284;2022-09-13T10:02:01;6.95;;;4.43;;
67049;SDS011;53955;52.442;13.284;2022-09-13T10:04:40;9.57;;;4.78;;
67049;SDS011;53955;52.442;13.284;2022-09-13T10:07:08;8.82;;;4.60;;
67049;SDS011;53955;52.442;13.284;2022-09-13T10:09:50;5.35;;;3.72;;
67049;SDS011;53955;52.442;13.284;2022-09-13T10:12:24;17.67;;;4.63;;
67049;SDS011;53955;52.442;13.284;2022-09-13T10:14:53;5.25;;;3.95;;
67049;SDS011;53955;52.442;13.284;2022-09-13T10:17:39;5.78;;;4.10;;
67049;SDS011;53955;52.442;13.284;2022-09-13T10:20:18;6.53;;;4.32;;
67049;SDS011;53955;52.442;13.284;2022-09-13T10:23:06;5.78;;;3.80;;
67049;SDS011;53955;52.442;13.284;2022-09-13T10:25:43;7.15;;;4.15;;
67049;SDS011;53955;52.442;13.284;2022-09-13T10:28:19;8.27;;;4.00;;
67049;SDS011;53955;52.442;13.284;2022-09-13T10:30:51;5.53;;;4.03;;
67049;SDS011;53955;52.442;13.284;2022-09-13T10:33:23;6.20;;;4.20;;
67049;SDS011;53955;52.442;13.284;2022-09-13T10:35:52;6.28;;;4.22;;
67049;SDS011;53955;52.442;13.284;2022-09-13T10:38:23;5.90;;;4.40;;
67049;SDS011;53955;52.442;13.284;2022-09-13T10:40:54;6.22;;;3.80;;
67049;SDS011;53955;52.442;13.284;2022-09-13T10:43:21;6.70;;;4.13;;
67049;SDS011;53955;52.442;13.284;2022-09-13T10:45:51;5.70;;;4.10;;
67049;SDS011;53955;52.442;13.284;2022-09-13T10:48:18;6.07;;;3.90;;
67049;SDS011;53955;52.442;13.284;2022-09-13T10:50:58;6.18;;;4.20;;
67049;SDS011;53955;52.442;13.284;2022-09-13T10:53:30;6.70;;;3.60;;
67049;SDS011;53955;52.442;13.284;2022-09-13T10:55:59;6.60;;;3.75;;
67049;SDS011;53955;52.442;13.284;2022-09-13T10:58:27;6.45;;;4.93;;
67049;SDS011;53955;52.442;13.284;2022-09-13T11:01:12;6.75;;;4.15;;
67049;SDS011;53955;52.442;13.284;2022-09-13T11:06:57;9.73;;;4.97;;
67049;SDS011;53955;52.442;13.284;2022-09-13T11:09:44;6.90;;;4.47;;
67049;SDS011;53955;52.442;13.284;2022-09-13T11:12:15;6.43;;;4.25;;
67049;SDS011;53955;52.442;13.284;2022-09-13T11:14:52;6.28;;;4.47;;
67049;SDS011;53955;52.442;13.284;2022-09-13T11:17:32;8.25;;;4.75;;
67049;SDS011;53955;52.442;13.284;2022-09-13T11:20:25;7.18;;;5.03;;
67049;SDS011;53955;52.442;13.284;2022-09-13T11:23:24;6.43;;;4.60;;
67049;SDS011;53955;52.442;13.284;2022-09-13T11:29:04;8.68;;;5.13;;
67049;SDS011;53955;52.442;13.284;2022-09-13T11:31:45;6.35;;;4.97;;
67049;SDS011;53955;52.442;13.284;2022-09-13T11:34:30;6.82;;;4.85;;
67049;SDS011;53955;52.442;13.284;2022-09-13T11:37:07;7.32;;;5.30;;
67049;SDS011;53955;52.442;13.284;2022-09-13T11:39:42;9.30;;;5.55;;
67049;SDS011;53955;52.442;13.284;2022-09-13T11:42:19;8.40;;;5.30;;
67049;SDS011;53955;52.442;13.284;2022-09-13T11:45:08;10.07;;;5.15;;
67049;SDS011;53955;52.442;13.284;2022-09-13T11:47:52;8.35;;;5.63;;
67049;SDS011;53955;52.442;13.284;2022-09-13T11:50:29;8.45;;;5.32;;
67049;SDS011;53955;52.442;13.284;2022-09-13T11:53:04;8.73;;;5.47;;
67049;SDS011;53955;52.442;13.284;2022-09-13T11:55:44;8.05;;;5.30;;
67049;SDS011;53955;52.442;13.284;2022-09-13T11:58:14;8.70;;;5.10;;
67049;SDS011;53955;52.442;13.284;2022-09-13T12:00:44;7.18;;;4.90;;
67049;SDS011;53955;52.442;13.284;2022-09-13T12:03:16;8.40;;;5.05;;
67049;SDS011;53955;52.442;13.284;2022-09-13T12:05:50;9.18;;;5.28;;
67049;SDS011;53955;52.442;13.284;2022-09-13T12:08:21;8.68;;;5.07;;
67049;SDS011;53955;52.442;13.284;2022-09-13T12:10:51;8.10;;;5.20;;
67049;SDS011;53955;52.442;13.284;2022-09-13T12:13:21;8.52;;;5.30;;
67049;SDS011;53955;52.442;13.284;2022-09-13T12:15:52;11.38;;;5.05;;
67049;SDS011;53955;52.442;13.284;2022-09-13T12:18:23;7.78;;;5.05;;
67049;SDS011;53955;52.442;13.284;2022-09-13T12:20:54;8.63;;;5.30;;
67049;SDS011;53955;52.442;13.284;2022-09-13T12:23:26;8.93;;;5.30;;
67049;SDS011;53955;52.442;13.284;2022-09-13T12:25:57;7.57;;;4.85;;
67049;SDS011;53955;52.442;13.284;2022-09-13T12:28:28;9.30;;;5.07;;
67049;SDS011;53955;52.442;13.284;2022-09-13T12:31:01;8.73;;;4.80;;
67049;SDS011;53955;52.442;13.284;2022-09-13T12:33:31;9.57;;;5.90;;
67049;SDS011;53955;52.442;13.284;2022-09-13T12:36:14;8.45;;;5.55;;
67049;SDS011;53955;52.442;13.284;2022-09-13T12:39:08;7.40;;;5.18;;
67049;SDS011;53955;52.442;13.284;2022-09-13T12:41:54;7.47;;;5.13;;
67049;SDS011;53955;52.442;13.284;2022-09-13T12:44:48;9.82;;;5.68;;
67049;SDS011;53955;52.442;13.284;2022-09-13T12:47:32;9.35;;;5.30;;
67049;SDS011;53955;52.442;13.284;2022-09-13T12:50:34;7.80;;;4.95;;
67049;SDS011;53955;52.442;13.284;2022-09-13T12:53:23;8.40;;;5.40;;
67049;SDS011;53955;52.442;13.284;2022-09-13T12:56:23;9.55;;;5.60;;
67049;SDS011;53955;52.442;13.284;2022-09-13T12:59:03;7.07;;;5.00;;
67049;SDS011;53955;52.442;13.284;2022-09-13T13:01:48;10.20;;;6.07;;
67049;SDS011;53955;52.442;13.284;2022-09-13T13:04:16;9.80;;;5.53;;
67049;SDS011;53955;52.442;13.284;2022-09-13T13:06:49;9.40;;;5.97;;
67049;SDS011;53955;52.442;13.284;2022-09-13T13:09:24;10.63;;;5.57;;
67049;SDS011;53955;52.442;13.284;2022-09-13T13:12:01;8.40;;;5.75;;
67049;SDS011;53955;52.442;13.284;2022-09-13T13:17:33;8.45;;;5.82;;
67049;SDS011;53955;52.442;13.284;2022-09-13T13:23:24;9.95;;;5.78;;
67049;SDS011;53955;52.442;13.284;2022-09-13T13:28:51;7.22;;;5.28;;
67049;SDS011;53955;52.442;13.284;2022-09-13T13:31:40;8.15;;;5.40;;
67049;SDS011;53955;52.442;13.284;2022-09-13T13:34:25;11.13;;;6.53;;
67049;SDS011;53955;52.442;13.284;2022-09-13T13:37:27;8.40;;;5.68;;
67049;SDS011;53955;52.442;13.284;2022-09-13T13:40:19;10.00;;;5.97;;
67049;SDS011;53955;52.442;13.284;2022-09-13T13:42:50;9.52;;;6.35;;
67049;SDS011;53955;52.442;13.284;2022-09-13T13:48:48;11.13;;;6.75;;
67049;SDS011;53955;52.442;13.284;2022-09-13T13:51:16;11.27;;;6.97;;
67049;SDS011;53955;52.442;13.284;2022-09-13T13:53:47;10.13;;;6.47;;
67049;SDS011;53955;52.442;13.284;2022-09-13T13:56:18;9.10;;;6.82;;
67049;SDS011;53955;52.442;13.284;2022-09-13T13:58:49;12.18;;;6.65;;
67049;SDS011;53955;52.442;13.284;2022-09-13T14:01:20;11.65;;;7.30;;
67049;SDS011;53955;52.442;13.284;2022-09-13T14:03:58;11.17;;;6.83;;
67049;SDS011;53955;52.442;13.284;2022-09-13T14:06:52;10.20;;;6.55;;
67049;SDS011;53955;52.442;13.284;2022-09-13T14:09:29;9.88;;;6.40;;
67049;SDS011;53955;52.442;13.284;2022-09-13T14:12:09;9.20;;;6.60;;
67049;SDS011;53955;52.442;13.284;2022-09-13T14:14:49;10.40;;;6.43;;
67049;SDS011;53955;52.442;13.284;2022-09-13T14:17:36;10.55;;;7.10;;
67049;SDS011;53955;52.442;13.284;2022-09-13T14:20:16;11.73;;;6.35;;
67049;SDS011;53955;52.442;13.284;2022-09-13T14:22:44;10.20;;;6.85;;
67049;SDS011;53955;52.442;13.284;2022-09-13T14:25:13;9.30;;;6.83;;
67049;SDS011;53955;52.442;13.284;2022-09-13T14:27:47;9.88;;;6.65;;
67049;SDS011;53955;52.442;13.284;2022-09-13T14:30:18;9.68;;;6.38;;
67049;SDS011;53955;52.442;13.284;2022-09-13T14:32:49;9.45;;;6.72;;
67049;SDS011;53955;52.442;13.284;2022-09-13T14:35:23;10.35;;;6.53;;
67049;SDS011;53955;52.442;13.284;2022-09-13T14:37:51;10.23;;;6.80;;
67049;SDS011;53955;52.442;13.284;2022-09-13T14:40:20;8.93;;;6.13;;
67049;SDS011;53955;52.442;13.284;2022-09-13T14:42:50;10.07;;;6.70;;
67049;SDS011;53955;52.442;13.284;2022-09-13T14:45:20;9.82;;;6.40;;
67049;SDS011;53955;52.442;13.284;2022-09-13T14:47:52;9.65;;;6.38;;
67049;SDS011;53955;52.442;13.284;2022-09-13T14:50:23;8.63;;;6.32;;
67049;SDS011;53955;52.442;13.284;2022-09-13T14:52:52;9.88;;;6.18;;
67049;SDS011;53955;52.442;13.284;2022-09-13T14:55:21;8.82;;;6.28;;
67049;SDS011;53955;52.442;13.284;2022-09-13T14:57:53;9.68;;;5.97;;
67049;SDS011;53955;52.442;13.284;2022-09-13T15:00:25;8.15;;;5.88;;
67049;SDS011;53955;52.442;13.284;2022-09-13T15:02:53;8.27;;;5.53;;
67049;SDS011;53955;52.442;13.284;2022-09-13T15:05:23;9.63;;;5.25;;
67049;SDS011;53955;52.442;13.284;2022-09-13T15:07:51;6.97;;;4.80;;
67049;SDS011;53955;52.442;13.284;2022-09-13T15:10:20;9.95;;;5.57;;
67049;SDS011;53955;52.442;13.284;2022-09-13T15:12:50;9.15;;;5.80;;
67049;SDS011;53955;52.442;13.284;2022-09-13T15:15:31;7.65;;;5.07;;
67049;SDS011;53955;52.442;13.284;2022-09-13T15:18:00;8.00;;;5.55;;
67049;SDS011;53955;52.442;13.284;2022-09-13T15:20:28;7.45;;;4.82;;
67049;SDS011;53955;52.442;13.284;2022-09-13T15:23:09;7.35;;;5.32;;